createdAt,value
2023-05-14T00:00:07.998Z,7.40
2023-05-14T00:03:01.513Z,7.20
2023-05-14T00:05:35.764Z,7.70
2023-05-14T00:08:10.254Z,8.00
2023-05-14T00:10:44.113Z,8.10
2023-05-14T00:13:17.918Z,7.20
2023-05-14T00:15:52.187Z,7.80
2023-05-14T00:18:25.684Z,8.00
2023-05-14T00:20:59.292Z,7.00
2023-05-14T00:23:32.900Z,7.70
2023-05-14T00:26:06.876Z,8.10
2023-05-14T00:28:40.503Z,8.30
2023-05-14T00:31:14.585Z,7.70
2023-05-14T00:33:47.977Z,7.50
2023-05-14T00:36:21.935Z,7.50
2023-05-14T00:38:55.526Z,8.00
2023-05-14T00:41:28.970Z,7.60
2023-05-14T00:44:02.866Z,7.60
2023-05-14T00:46:36.456Z,7.80
2023-05-14T00:49:10.241Z,7.70
2023-05-14T00:51:47.212Z,8.30
2023-05-14T00:54:21.786Z,7.70
2023-05-14T00:56:55.723Z,7.80
2023-05-14T00:59:29.416Z,8.00
2023-05-14T01:02:03.286Z,6.80
2023-05-14T01:04:38.166Z,8.20
2023-05-14T01:07:22.985Z,8.20
2023-05-14T01:10:01.942Z,7.90
2023-05-14T01:15:14.001Z,8.20
2023-05-14T01:17:52.259Z,8.70
2023-05-14T01:20:27.399Z,8.80
2023-05-14T01:23:01.265Z,8.90
2023-05-14T01:25:35.605Z,8.20
2023-05-14T01:28:15.176Z,7.60
2023-05-14T01:30:59.529Z,8.20
2023-05-14T01:33:35.463Z,7.90
2023-05-14T01:36:10.026Z,8.20
2023-05-14T01:38:46.441Z,8.30
2023-05-14T01:41:22.981Z,8.20
2023-05-14T01:43:56.709Z,9.30
2023-05-14T01:46:32.726Z,8.70
2023-05-14T01:49:06.570Z,8.10
2023-05-14T01:51:40.368Z,8.80
2023-05-14T01:54:14.227Z,8.60
2023-05-14T01:56:48.145Z,8.90
2023-05-14T01:59:21.646Z,9.30
2023-05-14T02:01:55.057Z,9.20
2023-05-14T02:04:28.533Z,9.20
2023-05-14T02:07:02.363Z,8.70
2023-05-14T02:09:36.439Z,9.20
2023-05-14T02:12:11.566Z,9.00
2023-05-14T02:14:45.400Z,8.40
2023-05-14T02:17:18.856Z,9.70
2023-05-14T02:19:52.190Z,8.40
2023-05-14T02:22:26.052Z,8.50
2023-05-14T02:24:59.517Z,9.00
2023-05-14T02:27:33.519Z,9.20
2023-05-14T02:30:07.963Z,9.10
2023-05-14T02:32:41.468Z,9.70
2023-05-14T02:35:15.332Z,9.70
2023-05-14T02:37:49.448Z,9.70
2023-05-14T02:40:23.560Z,10.10
2023-05-14T02:42:57.716Z,10.00
2023-05-14T02:45:31.132Z,9.70
2023-05-14T02:48:05.572Z,9.70
2023-05-14T02:50:39.490Z,8.90
2023-05-14T02:53:12.941Z,8.60
2023-05-14T02:55:46.438Z,8.40
2023-05-14T02:58:19.695Z,9.30
2023-05-14T03:01:01.660Z,9.10
2023-05-14T03:03:37.365Z,9.30
2023-05-14T03:06:12.446Z,9.40
2023-05-14T03:08:46.293Z,10.90
2023-05-14T03:11:19.731Z,10.50
2023-05-14T03:13:53.268Z,11.00
2023-05-14T03:16:26.728Z,9.40
2023-05-14T03:19:00.318Z,10.10
2023-05-14T03:21:34.150Z,10.40
2023-05-14T03:24:08.325Z,9.80
2023-05-14T03:26:42.378Z,10.10
2023-05-14T03:29:18.621Z,10.20
2023-05-14T03:31:54.905Z,9.50
2023-05-14T03:34:28.448Z,11.40
2023-05-14T03:37:02.511Z,10.50
2023-05-14T03:39:36.738Z,10.00
2023-05-14T03:42:12.088Z,10.90
2023-05-14T03:44:45.962Z,10.60
2023-05-14T03:47:19.899Z,11.30
2023-05-14T03:49:53.476Z,11.50
2023-05-14T03:52:26.929Z,10.60
2023-05-14T03:55:00.693Z,11.60
2023-05-14T03:57:33.931Z,11.40
2023-05-14T04:00:10.477Z,11.30
2023-05-14T04:02:52.867Z,10.50
2023-05-14T04:05:26.899Z,11.30
2023-05-14T04:08:00.433Z,12.90
2023-05-14T04:10:34.905Z,12.90
2023-05-14T04:13:08.827Z,12.80
2023-05-14T04:15:45.489Z,13.40
2023-05-14T04:18:20.373Z,13.40
2023-05-14T04:20:56.374Z,13.20
2023-05-14T04:23:30.069Z,13.20
2023-05-14T04:26:04.024Z,13.60
2023-05-14T04:28:37.524Z,13.50
2023-05-14T04:31:11.258Z,13.90
2023-05-14T04:33:45.097Z,12.60
2023-05-14T04:36:19.034Z,13.40
2023-05-14T04:38:52.521Z,13.50
2023-05-14T04:41:26.611Z,13.50
2023-05-14T04:44:02.130Z,12.80
2023-05-14T04:46:35.525Z,13.10
2023-05-14T04:49:09.948Z,13.50
2023-05-14T04:51:43.939Z,12.60
2023-05-14T04:54:17.367Z,13.10
2023-05-14T04:56:51.065Z,13.30
2023-05-14T04:59:24.358Z,12.90
2023-05-14T05:01:57.968Z,13.50
2023-05-14T05:04:31.571Z,14.10
2023-05-14T05:07:06.052Z,13.10
2023-05-14T05:09:39.242Z,14.10
2023-05-14T05:12:13.056Z,13.50
2023-05-14T05:14:46.534Z,13.50
2023-05-14T05:17:20.656Z,13.90
2023-05-14T05:19:54.398Z,13.60
2023-05-14T05:22:28.142Z,13.10
2023-05-14T05:25:01.578Z,13.60
2023-05-14T05:27:36.065Z,13.20
2023-05-14T05:30:12.848Z,13.40
2023-05-14T05:32:46.548Z,12.80
2023-05-14T05:35:20.485Z,13.40
2023-05-14T05:37:54.393Z,12.30
2023-05-14T05:40:28.033Z,11.90
2023-05-14T05:43:01.844Z,12.00
2023-05-14T05:45:35.477Z,12.50
2023-05-14T05:48:09.747Z,12.10
2023-05-14T05:50:45.007Z,11.90
2023-05-14T05:53:18.792Z,11.10
2023-05-14T05:55:52.559Z,11.90
2023-05-14T05:58:26.574Z,11.00
2023-05-14T06:01:00.190Z,10.80
2023-05-14T06:03:34.280Z,10.50
2023-05-14T06:06:08.555Z,10.90
2023-05-14T06:08:42.550Z,11.30
2023-05-14T06:11:17.241Z,10.40
2023-05-14T06:13:50.865Z,9.00
2023-05-14T06:16:24.282Z,10.00
2023-05-14T06:18:58.116Z,9.50
2023-05-14T06:21:31.457Z,10.20
2023-05-14T06:24:05.021Z,9.90
2023-05-14T06:26:38.228Z,10.10
2023-05-14T06:29:12.084Z,10.90
2023-05-14T06:31:45.937Z,10.20
2023-05-14T06:34:19.683Z,10.30
2023-05-14T06:36:53.619Z,10.20
2023-05-14T06:39:26.997Z,9.70
2023-05-14T06:42:01.395Z,8.90
2023-05-14T06:44:37.481Z,8.50
2023-05-14T06:47:11.425Z,7.50
2023-05-14T06:49:45.155Z,6.70
2023-05-14T06:52:19.312Z,7.00
2023-05-14T06:54:53.132Z,6.30
2023-05-14T06:57:27.000Z,6.80
2023-05-14T07:00:02.689Z,7.00
2023-05-14T07:02:37.534Z,6.10
2023-05-14T07:05:12.372Z,6.20
2023-05-14T07:07:45.820Z,6.00
2023-05-14T07:10:20.141Z,5.70
2023-05-14T07:12:53.731Z,6.10
2023-05-14T07:15:27.111Z,6.10
2023-05-14T07:18:00.906Z,6.20
2023-05-14T07:20:34.491Z,5.70
2023-05-14T07:23:08.544Z,6.30
2023-05-14T07:25:42.023Z,6.30
2023-05-14T07:28:15.615Z,6.20
2023-05-14T07:30:49.243Z,5.20
2023-05-14T07:33:23.343Z,6.00
2023-05-14T07:35:57.415Z,5.40
2023-05-14T07:38:31.496Z,5.10
2023-05-14T07:41:05.377Z,5.40
2023-05-14T07:43:40.817Z,4.90
2023-05-14T07:46:15.849Z,5.00
2023-05-14T07:48:49.483Z,4.80
2023-05-14T07:51:23.439Z,4.60
2023-05-14T07:53:57.456Z,4.70
2023-05-14T07:56:31.409Z,4.50
2023-05-14T07:59:04.608Z,4.40
2023-05-14T08:01:39.460Z,3.90
2023-05-14T08:04:15.633Z,4.70
2023-05-14T08:06:49.411Z,4.50
2023-05-14T08:09:23.127Z,4.20
2023-05-14T08:11:56.575Z,4.10
2023-05-14T08:14:30.241Z,3.90
2023-05-14T08:17:03.925Z,3.80
2023-05-14T08:19:38.058Z,3.70
2023-05-14T08:22:11.717Z,4.20
2023-05-14T08:24:45.119Z,3.90
2023-05-14T08:27:18.935Z,3.80
2023-05-14T08:29:52.924Z,4.30
2023-05-14T08:32:26.806Z,4.60
2023-05-14T08:35:00.768Z,4.30
2023-05-14T08:37:34.625Z,4.50
2023-05-14T08:40:10.253Z,4.50
2023-05-14T08:42:45.333Z,4.20
2023-05-14T08:45:21.962Z,4.00
2023-05-14T08:47:56.463Z,3.70
2023-05-14T08:50:31.595Z,3.70
2023-05-14T08:53:05.360Z,3.60
2023-05-14T08:55:39.694Z,3.80
2023-05-14T08:58:13.590Z,3.80
2023-05-14T09:00:48.169Z,3.10
2023-05-14T09:03:22.166Z,3.80
2023-05-14T09:05:57.065Z,3.50
2023-05-14T09:08:33.767Z,3.10
2023-05-14T09:11:07.563Z,3.30
2023-05-14T09:13:42.230Z,3.30
2023-05-14T09:16:16.820Z,3.30
2023-05-14T09:18:51.041Z,3.30
2023-05-14T09:21:24.925Z,2.80
2023-05-14T09:24:00.542Z,3.60
2023-05-14T09:26:36.099Z,2.80
2023-05-14T09:29:09.697Z,3.10
2023-05-14T09:31:43.495Z,3.20
2023-05-14T09:34:28.152Z,2.90
2023-05-14T09:37:03.180Z,3.50
2023-05-14T09:39:38.776Z,2.90
2023-05-14T09:42:12.744Z,3.00
2023-05-14T09:44:47.718Z,2.80
2023-05-14T09:47:21.468Z,3.00
2023-05-14T09:49:55.890Z,3.20
2023-05-14T09:52:30.107Z,2.60
2023-05-14T09:55:04.476Z,3.60
2023-05-14T09:57:38.487Z,3.10
2023-05-14T10:00:14.470Z,2.90
2023-05-14T10:02:50.081Z,2.90
2023-05-14T10:05:25.131Z,3.40
2023-05-14T10:08:01.063Z,3.20
2023-05-14T10:10:37.291Z,3.40
2023-05-14T10:13:15.337Z,3.10
2023-05-14T10:15:58.682Z,3.20
2023-05-14T10:18:38.160Z,2.90
2023-05-14T10:21:12.616Z,2.80
2023-05-14T10:23:46.635Z,3.50
2023-05-14T10:26:22.410Z,3.40
2023-05-14T10:28:58.096Z,3.00
2023-05-14T10:31:54.030Z,3.20
2023-05-14T10:34:44.360Z,3.70
2023-05-14T10:37:20.089Z,3.10
2023-05-14T10:39:55.302Z,3.30
2023-05-14T10:42:35.695Z,3.50
2023-05-14T10:45:11.900Z,3.20
2023-05-14T10:47:47.205Z,3.10
2023-05-14T10:50:24.376Z,3.00
2023-05-14T10:52:59.382Z,2.80
2023-05-14T10:55:33.455Z,2.70
2023-05-14T10:58:08.090Z,3.20
2023-05-14T11:00:43.147Z,3.50
2023-05-14T11:03:17.486Z,3.00
2023-05-14T11:05:51.605Z,3.10
2023-05-14T11:08:29.406Z,2.90
2023-05-14T11:13:35.790Z,2.90
2023-05-14T11:18:47.247Z,2.90
2023-05-14T11:21:22.500Z,2.80
2023-05-14T11:23:58.179Z,3.30
2023-05-14T11:26:33.236Z,2.70
2023-05-14T11:29:08.472Z,2.90
2023-05-14T11:31:42.425Z,2.70
2023-05-14T11:34:16.246Z,2.90
2023-05-14T11:36:49.761Z,2.70
2023-05-14T11:39:23.758Z,2.60
2023-05-14T11:41:57.431Z,2.40
2023-05-14T11:44:31.125Z,2.90
2023-05-14T11:47:05.422Z,2.70
2023-05-14T11:49:39.024Z,3.10
2023-05-14T11:52:14.629Z,2.60
2023-05-14T11:54:49.928Z,3.00
2023-05-14T11:57:24.235Z,3.30
2023-05-14T12:00:00.523Z,3.10
2023-05-14T12:02:35.241Z,3.20
2023-05-14T12:05:14.615Z,2.90
2023-05-14T12:07:49.655Z,2.80
2023-05-14T12:10:23.727Z,2.60
2023-05-14T12:12:57.460Z,2.80
2023-05-14T12:15:31.490Z,2.80
2023-05-14T12:18:22.917Z,2.50
2023-05-14T12:21:03.863Z,3.10
2023-05-14T12:23:40.269Z,2.70
2023-05-14T12:26:14.053Z,2.80
2023-05-14T12:28:51.154Z,2.50
2023-05-14T12:31:32.216Z,2.80
2023-05-14T12:34:06.273Z,3.20
2023-05-14T12:36:39.848Z,4.10
2023-05-14T12:39:13.873Z,2.70
2023-05-14T12:41:47.373Z,3.00
2023-05-14T12:44:22.993Z,2.80
2023-05-14T12:46:57.574Z,2.80
2023-05-14T12:49:31.472Z,2.70
2023-05-14T12:52:22.824Z,2.80
2023-05-14T12:54:59.628Z,2.90
2023-05-14T12:57:35.842Z,2.30
2023-05-14T13:00:14.184Z,2.90
2023-05-14T13:02:48.892Z,2.80
2023-05-14T13:05:23.470Z,2.70
2023-05-14T13:08:00.819Z,2.70
2023-05-14T13:10:35.061Z,2.90
2023-05-14T13:13:08.743Z,2.50
2023-05-14T13:15:42.252Z,3.20
2023-05-14T13:18:15.977Z,2.90
2023-05-14T13:20:49.545Z,2.80
2023-05-14T13:23:23.511Z,2.80
2023-05-14T13:25:57.335Z,2.60
2023-05-14T13:28:31.058Z,2.60
2023-05-14T13:31:12.625Z,2.70
2023-05-14T13:33:46.765Z,3.80
2023-05-14T13:36:20.620Z,2.70
2023-05-14T13:38:54.427Z,2.60
2023-05-14T13:41:30.342Z,3.40
2023-05-14T13:44:04.126Z,2.80
2023-05-14T13:46:38.047Z,2.80
2023-05-14T13:49:12.211Z,2.90
2023-05-14T13:51:46.160Z,3.00
2023-05-14T13:54:20.028Z,2.70
2023-05-14T13:56:53.850Z,2.80
2023-05-14T13:59:28.153Z,2.60
2023-05-14T14:02:02.172Z,3.10
2023-05-14T14:04:36.222Z,2.70
2023-05-14T14:07:09.946Z,2.70
2023-05-14T14:09:43.777Z,2.90
2023-05-14T14:12:17.675Z,2.80
2023-05-14T14:14:51.532Z,3.00
2023-05-14T14:17:25.160Z,3.00
2023-05-14T14:19:59.136Z,2.50
2023-05-14T14:22:33.990Z,2.80
2023-05-14T14:25:09.524Z,2.80
2023-05-14T14:27:43.616Z,2.60
2023-05-14T14:30:18.492Z,2.80
2023-05-14T14:32:53.029Z,3.70
2023-05-14T14:35:27.015Z,3.00
2023-05-14T14:38:00.713Z,2.80
2023-05-14T14:40:36.481Z,3.10
2023-05-14T14:43:10.248Z,2.90
2023-05-14T14:45:48.230Z,2.50
2023-05-14T14:48:34.536Z,2.60
2023-05-14T14:51:09.310Z,2.80
2023-05-14T14:53:43.211Z,2.60
2023-05-14T14:56:16.937Z,2.60
2023-05-14T14:58:50.799Z,2.70
2023-05-14T15:01:24.825Z,2.80
2023-05-14T15:03:59.178Z,2.80
2023-05-14T15:06:32.887Z,2.30
2023-05-14T15:09:08.172Z,3.00
2023-05-14T15:11:42.064Z,3.40
2023-05-14T15:14:15.612Z,2.70
2023-05-14T15:16:51.059Z,3.60
2023-05-14T15:19:25.186Z,3.50
2023-05-14T15:21:59.341Z,3.50
2023-05-14T15:24:33.127Z,3.30
2023-05-14T15:27:07.465Z,3.40
2023-05-14T15:29:41.800Z,3.10
2023-05-14T15:32:15.296Z,2.90
2023-05-14T15:34:49.207Z,2.60
2023-05-14T15:37:22.724Z,2.60
2023-05-14T15:39:56.555Z,2.70
2023-05-14T15:42:30.390Z,2.80
2023-05-14T15:45:03.934Z,2.60
2023-05-14T15:47:37.761Z,2.70
2023-05-14T15:50:13.039Z,3.00
2023-05-14T15:52:47.205Z,2.80
2023-05-14T15:55:21.061Z,2.70
2023-05-14T15:57:54.830Z,3.20
2023-05-14T16:00:28.761Z,2.80
2023-05-14T16:03:02.622Z,3.10
2023-05-14T16:05:36.905Z,2.90
2023-05-14T16:08:11.364Z,3.00
2023-05-14T16:10:45.065Z,2.80
2023-05-14T16:13:18.535Z,2.80
2023-05-14T16:15:52.313Z,2.70
2023-05-14T16:18:26.335Z,2.80
2023-05-14T16:20:59.692Z,2.80
2023-05-14T16:23:33.613Z,3.20
2023-05-14T16:26:08.853Z,3.10
2023-05-14T16:28:43.112Z,2.70
2023-05-14T16:31:17.082Z,2.60
2023-05-14T16:33:50.778Z,2.90
2023-05-14T16:36:24.607Z,2.70
2023-05-14T16:39:07.264Z,2.60
2023-05-14T16:41:41.817Z,3.30
2023-05-14T16:44:15.501Z,3.00
2023-05-14T16:46:49.377Z,2.70
2023-05-14T16:49:23.549Z,2.60
2023-05-14T16:51:57.419Z,2.90
2023-05-14T16:54:31.424Z,2.80
2023-05-14T16:57:06.317Z,2.80
2023-05-14T16:59:39.777Z,2.90
2023-05-14T17:02:14.314Z,2.70
2023-05-14T17:04:48.570Z,2.70
2023-05-14T17:07:23.428Z,2.50
2023-05-14T17:09:58.390Z,3.20
2023-05-14T17:12:32.167Z,2.70
2023-05-14T17:15:06.935Z,2.80
2023-05-14T17:17:40.844Z,2.50
2023-05-14T17:20:16.981Z,2.80
2023-05-14T17:22:51.241Z,3.00
2023-05-14T17:25:26.812Z,2.50
2023-05-14T17:28:00.942Z,2.70
2023-05-14T17:30:34.607Z,2.80
2023-05-14T17:33:08.745Z,2.80
2023-05-14T17:35:44.263Z,2.70
2023-05-14T17:38:17.993Z,2.70
2023-05-14T17:40:51.900Z,2.80
2023-05-14T17:43:25.652Z,2.30
2023-05-14T17:45:59.936Z,2.30
2023-05-14T17:48:33.908Z,2.50
2023-05-14T17:51:07.826Z,2.80
2023-05-14T17:53:42.028Z,2.50
2023-05-14T17:56:17.668Z,2.50
2023-05-14T17:58:52.760Z,2.40
2023-05-14T18:01:29.764Z,2.80
2023-05-14T18:04:06.204Z,2.40
2023-05-14T18:06:41.111Z,2.80
2023-05-14T18:09:17.020Z,2.70
2023-05-14T18:11:54.687Z,2.90
2023-05-14T18:14:30.000Z,2.90
2023-05-14T18:17:04.056Z,2.60
2023-05-14T18:19:37.808Z,3.00
2023-05-14T18:22:12.156Z,3.00
2023-05-14T18:24:47.052Z,3.00
2023-05-14T18:27:26.718Z,2.70
2023-05-14T18:30:01.012Z,3.00
2023-05-14T18:32:35.030Z,2.90
2023-05-14T18:35:09.882Z,3.10
2023-05-14T18:37:46.008Z,3.30
2023-05-14T18:40:21.116Z,3.20
2023-05-14T18:42:57.010Z,3.00
2023-05-14T18:45:32.775Z,3.40
2023-05-14T18:48:07.150Z,3.20
2023-05-14T18:50:43.247Z,3.10
2023-05-14T18:53:17.012Z,3.90
2023-05-14T18:55:51.289Z,3.30
2023-05-14T18:58:28.645Z,3.70
2023-05-14T19:01:03.549Z,3.50
2023-05-14T19:03:41.952Z,3.00
2023-05-14T19:06:16.162Z,3.30
2023-05-14T19:08:50.601Z,3.70
2023-05-14T19:11:25.001Z,3.50
2023-05-14T19:13:59.998Z,3.40
2023-05-14T19:16:34.813Z,3.60
2023-05-14T19:19:09.039Z,3.80
2023-05-14T19:21:45.844Z,3.20
2023-05-14T19:24:21.260Z,3.70
2023-05-14T19:26:56.050Z,3.60
2023-05-14T19:29:33.102Z,3.80
2023-05-14T19:32:08.063Z,3.70
2023-05-14T19:34:41.796Z,3.50
2023-05-14T19:37:19.444Z,4.50
2023-05-14T19:39:54.534Z,4.70
2023-05-14T19:42:28.925Z,4.40
2023-05-14T19:45:03.218Z,4.20
2023-05-14T19:47:37.846Z,4.50
2023-05-14T19:50:14.690Z,5.00
2023-05-14T19:52:48.884Z,4.30
2023-05-14T19:55:26.516Z,4.80
2023-05-14T19:58:01.750Z,4.60
2023-05-14T20:00:37.550Z,4.70
2023-05-14T20:03:11.751Z,4.90
2023-05-14T20:05:47.424Z,5.10
2023-05-14T20:08:22.045Z,5.10
2023-05-14T20:10:57.818Z,4.60
2023-05-14T20:13:33.097Z,5.50
2023-05-14T20:16:08.938Z,4.80
2023-05-14T20:18:43.467Z,5.10
2023-05-14T20:21:18.681Z,4.60
2023-05-14T20:23:53.401Z,4.70
2023-05-14T20:26:27.844Z,4.80
2023-05-14T20:29:02.260Z,5.40
2023-05-14T20:31:36.444Z,4.60
2023-05-14T20:34:10.603Z,4.80
2023-05-14T20:36:44.429Z,4.30
2023-05-14T20:39:19.929Z,4.60
2023-05-14T20:41:53.844Z,4.50
2023-05-14T20:44:27.607Z,4.80
2023-05-14T20:47:01.562Z,5.20
2023-05-14T20:49:35.876Z,5.30
2023-05-14T20:52:10.298Z,4.50
2023-05-14T20:54:44.313Z,4.70
2023-05-14T20:57:18.710Z,5.60
2023-05-14T20:59:52.474Z,4.40
2023-05-14T21:02:26.096Z,4.90
2023-05-14T21:04:59.992Z,5.40
2023-05-14T21:07:33.505Z,4.80
2023-05-14T21:10:07.948Z,4.80
2023-05-14T21:12:42.752Z,5.60
2023-05-14T21:15:17.530Z,4.30
2023-05-14T21:17:51.150Z,4.70
2023-05-14T21:20:25.022Z,4.50
2023-05-14T21:22:59.342Z,4.80
2023-05-14T21:25:33.179Z,4.80
2023-05-14T21:28:06.966Z,4.50
2023-05-14T21:30:40.975Z,4.30
2023-05-14T21:33:15.902Z,4.80
2023-05-14T21:35:49.205Z,4.30
2023-05-14T21:38:23.287Z,4.80
2023-05-14T21:40:56.786Z,4.40
2023-05-14T21:43:30.626Z,4.30
2023-05-14T21:46:04.398Z,4.80
2023-05-14T21:48:40.974Z,4.90
2023-05-14T21:51:15.039Z,4.50
2023-05-14T21:53:49.234Z,4.60
2023-05-14T21:56:23.020Z,4.80
2023-05-14T21:58:57.424Z,5.00
2023-05-14T22:01:32.541Z,5.30
2023-05-14T22:04:08.295Z,4.70
2023-05-14T22:06:42.313Z,4.90
2023-05-14T22:09:15.913Z,5.60
2023-05-14T22:11:49.356Z,5.30
2023-05-14T22:14:23.054Z,4.80
2023-05-14T22:16:57.003Z,5.10
2023-05-14T22:19:31.538Z,5.00
2023-05-14T22:22:05.679Z,5.10
2023-05-14T22:24:39.422Z,4.90
2023-05-14T22:27:12.958Z,5.20
2023-05-14T22:29:46.555Z,5.60
2023-05-14T22:32:20.222Z,4.80
2023-05-14T22:34:53.936Z,4.60
2023-05-14T22:37:27.512Z,4.80
2023-05-14T22:40:02.444Z,4.60
2023-05-14T22:42:36.286Z,4.50
2023-05-14T22:45:12.063Z,4.80
2023-05-14T22:47:45.699Z,4.40
2023-05-14T22:50:19.418Z,4.40
2023-05-14T22:52:53.278Z,4.50
2023-05-14T22:55:27.062Z,4.60
2023-05-14T22:58:01.115Z,4.70
2023-05-14T23:00:34.723Z,4.30
2023-05-14T23:03:08.703Z,4.30
2023-05-14T23:05:42.591Z,4.90
2023-05-14T23:08:16.262Z,4.80
2023-05-14T23:10:49.736Z,4.50
2023-05-14T23:13:23.941Z,4.70
2023-05-14T23:15:57.412Z,4.50
2023-05-14T23:18:31.766Z,4.40
2023-05-14T23:21:05.562Z,4.60
2023-05-14T23:23:39.239Z,4.70
2023-05-14T23:26:13.080Z,4.30
2023-05-14T23:28:47.619Z,3.90
2023-05-14T23:31:21.124Z,4.50
2023-05-14T23:33:54.648Z,3.70
2023-05-14T23:36:28.332Z,4.00
2023-05-14T23:39:02.107Z,4.30
2023-05-14T23:41:35.722Z,4.50
2023-05-14T23:44:09.893Z,4.30
2023-05-14T23:46:43.554Z,4.10
2023-05-14T23:49:17.729Z,4.00
2023-05-14T23:51:51.230Z,4.20
2023-05-14T23:54:24.596Z,4.30
2023-05-14T23:56:58.400Z,4.20
2023-05-14T23:59:32.288Z,3.80
